Time;durP1;ratioP1;P1;durP2;ratioP2;P2;SDS_P1;SDS_P2;PMS_P1;PMS_P2;Temp;Humidity;BMP_temperature;BMP_pressure;BME280_temperature;BME280_humidity;BME280_pressure;Samples;Min_cycle;Max_cycle;Signal;HPM_P1;HPM_P2
2022/09/21 00:00:29;;;;;;;0.30;0.20;;;;;;;9.79;81.48;99239.97;5071321;28;20233;-82
2022/09/21 00:02:56;;;;;;;0.30;0.30;;;;;;;9.78;81.37;99237.53;5071575;28;20763;-82
2022/09/21 00:05:24;;;;;;;0.40;0.40;;;;;;;9.70;81.58;99236.28;5071560;28;20737;-82
2022/09/21 00:07:51;;;;;;;0.33;0.33;;;;;;;9.64;81.97;99236.69;5070994;28;20213;-82
2022/09/21 00:10:19;;;;;;;0.30;0.30;;;;;;;9.65;82.02;99240.88;5071306;28;20670;-82
2022/09/21 00:12:47;;;;;;;0.40;0.40;;;;;;;9.68;81.97;99238.13;5071159;28;20288;-82
2022/09/21 00:15:17;;;;;;;0.40;0.40;;;;;;;9.71;82.03;99237.91;5073169;28;20649;-82
2022/09/21 00:17:45;;;;;;;0.23;0.23;;;;;;;9.65;82.15;99240.06;5072878;28;20264;-82
2022/09/21 00:20:12;;;;;;;0.20;0.20;;;;;;;9.62;82.35;99243.63;5074391;28;20225;-82
2022/09/21 00:22:40;;;;;;;0.10;0.10;;;;;;;9.60;82.55;99245.47;5075471;28;20202;-82
2022/09/21 00:25:08;;;;;;;0.43;0.43;;;;;;;9.59;82.71;99241.28;5075333;28;20459;-82
2022/09/21 00:27:35;;;;;;;0.20;0.20;;;;;;;9.61;82.54;99242.00;5075311;28;20229;-82
2022/09/21 00:30:03;;;;;;;0.20;0.20;;;;;;;9.62;83.03;99225.75;5075699;28;20289;-82
2022/09/21 00:32:32;;;;;;;0.10;0.10;;;;;;;9.47;83.98;99234.44;5075022;28;20257;-82
2022/09/21 00:35:00;;;;;;;0.37;0.37;;;;;;;9.47;84.25;99234.44;5074452;28;20610;-82
2022/09/21 00:37:27;;;;;;;0.30;0.30;;;;;;;9.50;84.36;99236.78;5075047;28;20226;-82
2022/09/21 00:39:55;;;;;;;0.97;0.50;;;;;;;9.48;84.24;99236.91;5076015;28;20577;-82
2022/09/21 00:42:25;;;;;;;0.30;0.30;;;;;;;9.57;84.09;99240.59;5076344;28;20202;-82
2022/09/21 00:44:52;;;;;;;0.17;0.10;;;;;;;9.57;84.31;99235.47;5075920;28;20209;-82
2022/09/21 00:47:23;;;;;;;0.17;0.17;;;;;;;9.63;84.29;99240.19;5075364;28;20692;-82
2022/09/21 00:49:55;;;;;;;0.30;0.30;;;;;;;9.59;84.65;99248.13;5075250;28;20586;-82
2022/09/21 00:52:23;;;;;;;0.30;0.30;;;;;;;9.70;84.38;99251.59;5075437;28;20226;-82
2022/09/21 00:54:53;;;;;;;0.30;0.30;;;;;;;9.63;84.35;99247.84;5074243;28;20378;-82
2022/09/21 00:57:23;;;;;;;0.30;0.30;;;;;;;9.51;84.90;99246.06;5074752;28;20194;-82
2022/09/21 00:59:54;;;;;;;0.30;0.30;;;;;;;9.56;84.85;99238.94;5074835;28;20207;-82
2022/09/21 01:02:21;;;;;;;0.10;0.10;;;;;;;9.60;84.63;99234.44;5074566;28;20195;-82
2022/09/21 01:04:48;;;;;;;0.23;0.23;;;;;;;9.56;84.66;99236.38;5074868;28;20199;-82
2022/09/21 01:07:21;;;;;;;0.30;0.30;;;;;;;9.61;84.45;99231.78;5076526;28;20209;-82
2022/09/21 01:09:52;;;;;;;0.20;0.20;;;;;;;9.56;84.58;99225.34;5076613;28;20644;-82
2022/09/21 01:12:35;;;;;;;0.50;0.50;;;;;;;9.47;84.70;99222.47;5075107;28;20229;-82
2022/09/21 01:15:20;;;;;;;0.40;0.40;;;;;;;9.49;84.23;99222.41;5074551;28;20194;-82
2022/09/21 01:17:57;;;;;;;0.10;0.10;;;;;;;9.51;84.51;99223.94;5074388;28;20206;-82
2022/09/21 01:21:11;;;;;;;0.13;0.13;;;;;;;9.57;84.16;99225.25;5074771;28;20225;-82
2022/09/21 01:24:04;;;;;;;0.20;0.20;;;;;;;9.57;83.98;99219.31;5068829;28;20210;-82
2022/09/21 01:26:43;;;;;;;0.70;0.70;;;;;;;9.54;83.93;99230.56;5071327;28;20223;-82
2022/09/21 01:29:17;;;;;;;0.10;0.10;;;;;;;9.52;83.83;99228.09;5074065;28;20202;-82
2022/09/21 01:31:50;;;;;;;0.20;0.20;;;;;;;9.59;83.95;99227.69;5073703;28;20227;-82
2022/09/21 01:34:25;;;;;;;0.33;0.33;;;;;;;9.57;84.04;99220.16;5073837;28;20202;-82
2022/09/21 01:36:55;;;;;;;1.03;0.60;;;;;;;9.56;83.68;99213.41;5073329;28;20228;-82
2022/09/21 01:39:24;;;;;;;0.43;0.43;;;;;;;9.53;83.45;99214.41;5073959;28;20206;-82
2022/09/21 01:41:52;;;;;;;0.40;0.40;;;;;;;9.50;83.56;99218.91;5074606;28;20626;-82
2022/09/21 01:44:24;;;;;;;0.20;0.20;;;;;;;9.44;83.69;99214.22;5074321;28;20202;-82
2022/09/21 01:46:53;;;;;;;0.33;0.20;;;;;;;9.34;84.02;99200.41;5074500;28;20223;-82
2022/09/21 01:49:25;;;;;;;0.53;0.50;;;;;;;9.38;84.07;99212.06;5073841;28;20242;-82
2022/09/21 01:51:58;;;;;;;0.47;0.47;;;;;;;9.35;84.23;99214.81;5073599;28;20765;-82
2022/09/21 01:54:30;;;;;;;0.30;0.30;;;;;;;9.35;84.22;99219.91;5073560;28;20677;-82
2022/09/21 01:57:06;;;;;;;0.30;0.30;;;;;;;9.38;84.20;99219.72;5073284;28;20226;-82
2022/09/21 01:59:42;;;;;;;0.40;0.40;;;;;;;9.36;84.03;99217.25;5073145;28;20194;-82
2022/09/21 02:02:17;;;;;;;0.40;0.40;;;;;;;9.37;83.82;99218.91;5073104;28;20591;-82
2022/09/21 02:04:44;;;;;;;0.43;0.30;;;;;;;9.29;84.27;99221.13;5074231;28;20700;-82
2022/09/21 02:07:12;;;;;;;0.23;0.23;;;;;;;9.17;84.53;99217.66;5073029;28;20689;-82
2022/09/21 02:09:39;;;;;;;0.30;0.30;;;;;;;9.12;84.96;99217.13;5074010;28;20396;-82
2022/09/21 02:12:06;;;;;;;0.20;0.20;;;;;;;9.05;85.26;99221.00;5073298;28;20275;-82
2022/09/21 02:14:37;;;;;;;0.20;0.20;;;;;;;9.09;85.20;99222.41;5074089;28;20248;-82
2022/09/21 02:17:18;;;;;;;0.20;0.20;;;;;;;9.00;85.84;99210.25;5073130;28;20222;-82
2022/09/21 02:19:49;;;;;;;0.10;0.10;;;;;;;8.94;86.00;99220.84;5072916;28;20677;-82
2022/09/21 02:22:23;;;;;;;0.10;0.10;;;;;;;8.89;86.07;99216.03;5073145;28;20195;-82
2022/09/21 02:24:57;;;;;;;0.10;0.10;;;;;;;8.81;86.62;99216.53;5073033;28;20182;-82
2022/09/21 02:27:32;;;;;;;0.10;0.10;;;;;;;8.76;87.74;99213.44;5072640;28;20205;-82
2022/09/21 02:30:07;;;;;;;0.60;0.50;;;;;;;8.81;87.43;99213.97;5072255;28;20198;-82
2022/09/21 02:32:45;;;;;;;0.30;0.30;;;;;;;8.70;87.83;99208.72;5072601;28;20257;-82
2022/09/21 02:35:20;;;;;;;0.40;0.40;;;;;;;8.69;88.35;99216.47;5076191;28;20295;-82
2022/09/21 02:37:55;;;;;;;0.37;0.37;;;;;;;8.72;88.90;99211.97;5073803;28;20202;-82
2022/09/21 02:40:28;;;;;;;0.20;0.20;;;;;;;8.69;89.57;99217.28;5073452;28;20218;-82
2022/09/21 02:43:01;;;;;;;0.20;0.20;;;;;;;8.75;89.45;99213.53;5073353;28;20195;-82
2022/09/21 02:45:35;;;;;;;0.27;0.20;;;;;;;8.78;89.66;99206.50;5073039;28;20218;-82
2022/09/21 02:48:07;;;;;;;0.20;0.20;;;;;;;8.79;89.46;99203.06;5073531;28;20198;-82
2022/09/21 02:50:41;;;;;;;0.30;0.30;;;;;;;8.77;89.70;99198.97;5072292;28;20225;-82
2022/09/21 02:53:11;;;;;;;0.20;0.20;;;;;;;8.75;90.06;99205.88;5072496;28;20256;-82
2022/09/21 02:55:39;;;;;;;0.30;0.30;;;;;;;8.72;89.75;99206.06;5072513;28;20219;-82
2022/09/21 02:58:10;;;;;;;0.37;0.37;;;;;;;8.69;90.48;99203.72;5073227;28;20233;-82
2022/09/21 03:00:39;;;;;;;0.63;0.63;;;;;;;8.69;90.39;99204.53;5073382;28;20771;-82
2022/09/21 03:03:16;;;;;;;0.17;0.17;;;;;;;8.71;90.70;99209.53;5072309;28;20279;-82
2022/09/21 03:05:45;;;;;;;0.30;0.30;;;;;;;8.74;90.83;99215.25;5072626;28;20222;-82
2022/09/21 03:08:11;;;;;;;0.23;0.23;;;;;;;8.70;91.19;99207.91;5072188;28;20194;-82
2022/09/21 03:10:39;;;;;;;0.20;0.20;;;;;;;8.71;91.38;99209.53;5071669;28;20223;-82
2022/09/21 03:13:07;;;;;;;0.10;0.10;;;;;;;8.76;91.37;99212.63;5071807;28;20364;-82
2022/09/21 03:15:35;;;;;;;0.20;0.20;;;;;;;8.77;91.17;99204.06;5071704;28;20245;-82
2022/09/21 03:18:04;;;;;;;0.30;0.30;;;;;;;8.78;91.42;99220.97;5072385;28;20293;-81
2022/09/21 03:20:32;;;;;;;0.20;0.20;;;;;;;8.78;91.55;99219.25;5072541;28;20243;-82
2022/09/21 03:22:59;;;;;;;0.47;0.47;;;;;;;8.80;91.24;99219.97;5072178;28;20215;-82
2022/09/21 03:25:26;;;;;;;0.20;0.20;;;;;;;8.82;91.25;99223.25;5071597;28;20222;-82
2022/09/21 03:27:53;;;;;;;0.20;0.20;;;;;;;8.88;91.03;99216.13;5072698;28;20778;-82
2022/09/21 03:30:20;;;;;;;0.10;0.10;;;;;;;8.89;90.81;99221.13;5072951;28;20266;-82
2022/09/21 03:32:49;;;;;;;0.93;0.40;;;;;;;8.86;91.02;99223.06;5072108;28;20260;-82
2022/09/21 03:35:17;;;;;;;0.20;0.20;;;;;;;8.83;91.19;99227.41;5071513;28;20279;-82
2022/09/21 03:37:44;;;;;;;0.10;0.10;;;;;;;8.84;91.34;99226.53;5072128;28;20241;-82
2022/09/21 03:40:12;;;;;;;0.20;0.20;;;;;;;8.86;91.18;99218.78;5071781;28;20225;-82
2022/09/21 03:42:39;;;;;;;0.10;0.10;;;;;;;8.83;91.32;99229.97;5071681;28;20209;-82
2022/09/21 03:45:07;;;;;;;0.20;0.20;;;;;;;8.82;91.67;99228.34;5071686;28;20201;-82
2022/09/21 03:47:35;;;;;;;0.20;0.20;;;;;;;8.75;91.79;99221.97;5071638;28;20199;-81
2022/09/21 03:50:01;;;;;;;0.20;0.20;;;;;;;8.80;91.66;99225.06;5071501;28;20833;-81
2022/09/21 03:52:30;;;;;;;0.57;0.27;;;;;;;8.84;91.54;99221.44;5071180;28;20201;-82
2022/09/21 03:54:57;;;;;;;0.10;0.10;;;;;;;8.87;91.43;99227.22;5070930;28;20241;-82
2022/09/21 03:57:24;;;;;;;0.20;0.20;;;;;;;8.84;91.96;99230.78;5072476;28;20883;-82
2022/09/21 03:59:53;;;;;;;0.10;0.10;;;;;;;8.86;92.09;99233.25;5071668;28;20202;-82
2022/09/21 04:02:20;;;;;;;0.17;0.17;;;;;;;8.88;91.96;99233.97;5071963;28;20228;-82
2022/09/21 04:04:47;;;;;;;0.40;0.40;;;;;;;8.95;91.72;99242.88;5071522;28;20360;-82
2022/09/21 04:07:14;;;;;;;0.10;0.10;;;;;;;8.97;91.49;99246.16;5071464;28;20203;-82
2022/09/21 04:09:42;;;;;;;0.40;0.40;;;;;;;9.01;91.35;99247.59;5071332;28;20739;-82
2022/09/21 04:12:09;;;;;;;0.23;0.23;;;;;;;9.04;91.12;99245.66;5071183;28;20227;-82
2022/09/21 04:14:36;;;;;;;0.13;0.13;;;;;;;8.98;91.09;99243.50;5070925;28;20230;-82
2022/09/21 04:17:03;;;;;;;0.17;0.17;;;;;;;8.98;91.30;99245.22;5071552;28;20279;-82
2022/09/21 04:19:30;;;;;;;0.50;0.50;;;;;;;8.97;91.59;99243.59;5072770;28;20209;-82
2022/09/21 04:21:57;;;;;;;0.20;0.20;;;;;;;9.02;91.50;99254.34;5072178;28;20237;-82
2022/09/21 04:24:24;;;;;;;0.13;0.13;;;;;;;9.11;91.24;99261.41;5071618;28;20587;-82
2022/09/21 04:26:52;;;;;;;0.20;0.20;;;;;;;9.13;91.15;99261.28;5071981;28;20233;-82
2022/09/21 04:29:19;;;;;;;0.20;0.20;;;;;;;9.19;91.24;99264.28;5071693;28;20293;-82
2022/09/21 04:31:46;;;;;;;1.03;0.20;;;;;;;9.23;90.76;99258.06;5071333;28;20219;-82
2022/09/21 04:34:14;;;;;;;0.20;0.20;;;;;;;9.17;90.85;99252.53;5070967;28;20230;-82
2022/09/21 04:36:41;;;;;;;0.20;0.20;;;;;;;9.22;91.13;99256.44;5070870;28;20218;-82
2022/09/21 04:39:08;;;;;;;0.10;0.10;;;;;;;9.25;91.04;99256.25;5070942;28;20206;-82
2022/09/21 04:41:35;;;;;;;0.10;0.10;;;;;;;9.40;90.43;99258.72;5070811;28;20231;-82
2022/09/21 04:44:03;;;;;;;0.10;0.10;;;;;;;9.35;90.46;99259.00;5071047;28;20226;-82
2022/09/21 04:46:30;;;;;;;0.33;0.33;;;;;;;9.34;90.94;99265.03;5070237;28;20222;-82
2022/09/21 04:48:57;;;;;;;0.13;0.13;;;;;;;9.37;90.87;99264.03;5071915;28;20203;-81
2022/09/21 04:51:24;;;;;;;0.10;0.10;;;;;;;9.41;90.71;99265.44;5070559;28;20230;-82
2022/09/21 04:53:51;;;;;;;0.47;0.30;;;;;;;9.39;90.49;99262.19;5071550;28;20230;-82
2022/09/21 04:56:18;;;;;;;0.10;0.10;;;;;;;9.36;90.21;99257.28;5071191;28;20244;-82
2022/09/21 04:58:45;;;;;;;0.20;0.20;;;;;;;9.46;90.56;99268.53;5070845;28;20210;-82
2022/09/21 05:01:13;;;;;;;0.10;0.10;;;;;;;9.48;90.36;99266.69;5070811;28;20241;-82
2022/09/21 05:03:40;;;;;;;0.10;0.10;;;;;;;9.47;90.00;99267.59;5070354;28;20210;-82
2022/09/21 05:06:08;;;;;;;0.20;0.20;;;;;;;9.42;90.03;99273.00;5073368;28;20214;-82
2022/09/21 05:11:19;;;;;;;0.20;0.20;;;;;;;9.56;89.79;99274.66;5073468;28;20217;-82
2022/09/21 05:13:47;;;;;;;0.20;0.20;;;;;;;9.65;89.97;99268.94;5073745;28;20608;-82
2022/09/21 05:16:16;;;;;;;0.17;0.17;;;;;;;9.97;89.66;99273.66;5073969;28;20222;-82
2022/09/21 05:18:44;;;;;;;0.20;0.20;;;;;;;10.32;88.85;99273.88;5074613;28;20206;-82
2022/09/21 05:21:12;;;;;;;0.10;0.10;;;;;;;10.60;87.31;99282.22;5074026;28;20241;-82
2022/09/21 05:23:39;;;;;;;0.20;0.20;;;;;;;10.86;86.90;99273.53;5074902;28;20206;-82
2022/09/21 05:26:07;;;;;;;0.10;0.10;;;;;;;11.20;85.73;99273.72;5074623;28;20222;-82
2022/09/21 05:28:34;;;;;;;0.47;0.47;;;;;;;11.47;83.62;99272.66;5073502;28;20206;-84
2022/09/21 05:31:13;;;;;;;0.10;0.10;;;;;;;11.63;83.63;99267.19;5072785;28;20701;-85
2022/09/21 05:33:48;;;;;;;0.20;0.20;;;;;;;11.74;81.90;99274.91;5073400;28;20238;-83
2022/09/21 05:36:35;;;;;;;0.20;0.20;;;;;;;11.81;80.39;99276.09;5073306;28;20617;-82
2022/09/21 05:39:03;;;;;;;0.70;0.50;;;;;;;12.00;81.32;99270.44;5072753;28;20207;-84
2022/09/21 05:41:30;;;;;;;0.20;0.20;;;;;;;12.11;79.83;99272.19;5072655;28;20222;-84
2022/09/21 05:43:58;;;;;;;0.20;0.20;;;;;;;12.34;79.16;99268.69;5072822;28;20202;-83
2022/09/21 05:46:35;;;;;;;0.20;0.20;;;;;;;12.55;79.26;99275.69;5073690;28;20230;-84
2022/09/21 05:49:12;;;;;;;0.20;0.20;;;;;;;12.81;77.60;99265.94;5073801;28;20202;-84
2022/09/21 05:51:45;;;;;;;0.23;0.23;;;;;;;13.17;76.96;99269.91;5072765;28;20222;-81
2022/09/21 05:54:21;;;;;;;0.37;0.37;;;;;;;13.48;76.28;99265.72;5072676;28;20276;-83
2022/09/21 05:56:53;;;;;;;0.20;0.20;;;;;;;13.56;73.88;99262.53;5072735;28;20225;-83
2022/09/21 05:59:58;;;;;;;0.67;0.40;;;;;;;13.61;73.40;99272.41;5073060;28;20195;-83
2022/09/21 06:02:44;;;;;;;0.23;0.23;;;;;;;13.78;73.40;99272.66;5010243;28;20246;-84
2022/09/21 06:05:14;;;;;;;0.40;0.40;;;;;;;13.85;73.22;99272.16;5069838;28;20219;-83
2022/09/21 06:07:41;;;;;;;0.87;0.43;;;;;;;13.88;72.07;99282.19;5072131;28;20215;-83
2022/09/21 06:10:09;;;;;;;0.20;0.20;;;;;;;14.10;71.82;99284.59;5072581;28;20292;-83
2022/09/21 06:12:36;;;;;;;0.33;0.33;;;;;;;14.16;71.30;99281.50;5072781;28;20207;-83
2022/09/21 06:15:04;;;;;;;0.20;0.20;;;;;;;14.57;72.75;99282.34;5073937;28;20255;-84
2022/09/21 06:17:32;;;;;;;0.40;0.40;;;;;;;14.85;70.12;99282.56;5072827;28;20209;-83
2022/09/21 06:19:59;;;;;;;0.40;0.40;;;;;;;14.94;68.69;99277.41;5072618;28;20675;-83
2022/09/21 06:22:27;;;;;;;0.30;0.30;;;;;;;15.05;68.95;99279.06;5072609;28;20197;-83
2022/09/21 06:24:54;;;;;;;0.23;0.23;;;;;;;15.02;67.35;99281.91;5072562;28;20373;-83
2022/09/21 06:27:21;;;;;;;0.27;0.27;;;;;;;15.15;70.32;99287.63;5072581;28;20733;-83
2022/09/21 06:29:47;;;;;;;0.30;0.30;;;;;;;15.38;68.64;99292.47;5072109;28;20218;-84
2022/09/21 06:32:14;;;;;;;0.60;0.60;;;;;;;15.44;67.13;99286.78;5072198;28;20199;-82
2022/09/21 06:34:42;;;;;;;0.40;0.40;;;;;;;15.52;66.66;99292.06;5072106;28;20689;-83
2022/09/21 06:37:09;;;;;;;0.47;0.47;;;;;;;15.56;68.13;99290.84;5071964;28;20288;-83
2022/09/21 06:39:37;;;;;;;0.70;0.67;;;;;;;15.53;66.09;99293.69;5072406;28;20229;-82
2022/09/21 06:42:04;;;;;;;0.60;0.60;;;;;;;15.65;66.06;99294.38;5072675;28;20214;-83
2022/09/21 06:44:31;;;;;;;0.60;0.60;;;;;;;15.78;65.99;99301.81;5075067;28;20210;-83
2022/09/21 06:46:58;;;;;;;0.53;0.40;;;;;;;15.83;66.79;99304.81;5073820;28;20230;-83
2022/09/21 06:49:27;;;;;;;0.40;0.40;;;;;;;15.46;66.26;99297.75;5072432;28;20713;-82
2022/09/21 06:51:54;;;;;;;0.40;0.40;;;;;;;15.09;68.80;99301.00;5072149;28;20717;-83
2022/09/21 06:54:21;;;;;;;0.47;0.40;;;;;;;14.72;69.92;99303.41;5071664;28;20241;-82
2022/09/21 06:56:49;;;;;;;0.47;0.47;;;;;;;14.76;70.26;99303.94;5072899;28;20293;-82
2022/09/21 06:59:16;;;;;;;0.23;0.23;;;;;;;14.96;71.35;99302.22;5072886;28;20198;-83
2022/09/21 07:01:43;;;;;;;0.73;0.47;;;;;;;15.51;70.16;99299.94;5074028;28;20217;-83
2022/09/21 07:04:10;;;;;;;0.60;0.60;;;;;;;15.90;70.78;99305.06;5074053;28;20730;-83
2022/09/21 07:06:37;;;;;;;0.90;0.70;;;;;;;16.26;66.43;99312.00;5072671;28;20226;-83
2022/09/21 07:09:04;;;;;;;0.20;0.20;;;;;;;16.45;65.59;99300.78;5073582;28;20205;-83
2022/09/21 07:11:30;;;;;;;0.57;0.57;;;;;;;16.44;64.84;99309.50;5072601;28;20214;-83
2022/09/21 07:13:59;;;;;;;0.47;0.47;;;;;;;16.51;64.24;99299.41;5073845;28;20234;-84
2022/09/21 07:16:26;;;;;;;0.60;0.50;;;;;;;16.30;64.87;99312.53;5073537;28;20321;-83
2022/09/21 07:18:53;;;;;;;0.30;0.30;;;;;;;15.80;65.83;99305.91;5072866;28;20234;-83
2022/09/21 07:21:20;;;;;;;0.67;0.67;;;;;;;16.32;66.40;99309.78;5071684;28;20222;-83
2022/09/21 07:23:47;;;;;;;0.50;0.50;;;;;;;16.73;63.42;99308.53;5071814;28;20207;-82
2022/09/21 07:26:15;;;;;;;0.30;0.30;;;;;;;17.16;62.95;99319.94;5071237;28;20230;-82
2022/09/21 07:28:42;;;;;;;0.70;0.50;;;;;;;17.39;62.67;99310.81;5070887;28;20570;-82
2022/09/21 07:31:12;;;;;;;0.63;0.63;;;;;;;17.82;59.98;99311.78;5071444;28;20235;-83
2022/09/21 07:33:40;;;;;;;0.50;0.50;;;;;;;17.94;58.68;99309.75;5072337;28;20202;-84
2022/09/21 07:36:10;;;;;;;0.33;0.33;;;;;;;17.36;59.61;99311.09;5073988;28;20494;-84
2022/09/21 07:38:38;;;;;;;0.50;0.50;;;;;;;17.20;61.15;99311.78;5074478;28;20226;-85
2022/09/21 07:41:05;;;;;;;0.37;0.37;;;;;;;17.18;61.55;99311.09;5072449;28;20223;-83
2022/09/21 07:43:32;;;;;;;0.63;0.63;;;;;;;17.36;60.93;99313.69;5073397;28;20195;-83
2022/09/21 07:46:00;;;;;;;0.80;0.80;;;;;;;17.85;60.65;99319.25;5072599;28;20231;-83
2022/09/21 07:48:29;;;;;;;0.47;0.43;;;;;;;17.88;57.65;99321.53;5072734;28;20730;-82
2022/09/21 07:51:03;;;;;;;0.50;0.43;;;;;;;17.81;60.05;99320.53;5071716;28;20226;-83
2022/09/21 07:53:30;;;;;;;0.83;0.67;;;;;;;17.90;59.90;99325.75;5071832;28;20204;-82
2022/09/21 07:56:01;;;;;;;0.80;0.77;;;;;;;17.89;60.85;99327.53;5071540;28;20710;-82
2022/09/21 08:01:12;;;;;;;0.60;0.60;;;;;;;18.08;59.48;99323.91;5071255;28;20276;-82
2022/09/21 08:03:40;;;;;;;0.50;0.50;;;;;;;18.48;56.97;99335.44;5072086;28;20205;-82
2022/09/21 08:06:08;;;;;;;0.67;0.67;;;;;;;18.57;56.16;99337.09;5070252;28;20230;-82
2022/09/21 08:08:35;;;;;;;0.47;0.47;;;;;;;18.38;59.59;99326.97;5070521;28;20674;-82
2022/09/21 08:11:06;;;;;;;0.40;0.40;;;;;;;18.27;58.25;99326.28;5071394;28;20237;-83
2022/09/21 08:13:33;;;;;;;1.00;0.80;;;;;;;18.44;56.67;99328.94;5074938;28;20215;-82
2022/09/21 08:16:01;;;;;;;0.80;0.80;;;;;;;18.99;60.82;99324.16;5073842;28;20241;-83
2022/09/21 08:18:28;;;;;;;0.63;0.60;;;;;;;19.48;58.37;99323.38;5074891;28;20603;-82
2022/09/21 08:20:58;;;;;;;0.70;0.70;;;;;;;19.46;56.14;99307.19;5073274;28;20232;-83
2022/09/21 08:23:27;;;;;;;0.60;0.60;;;;;;;19.48;55.01;99314.78;5073983;28;20195;-83
2022/09/21 08:25:59;;;;;;;0.50;0.50;;;;;;;19.66;55.14;99324.06;5072544;28;20235;-83
2022/09/21 08:28:26;;;;;;;3.03;1.03;;;;;;;19.98;54.92;99317.19;5072340;28;20677;-83
2022/09/21 08:30:52;;;;;;;0.73;0.67;;;;;;;19.92;53.97;99302.28;5071869;28;20241;-83
2022/09/21 08:33:19;;;;;;;0.90;0.90;;;;;;;19.57;52.59;99319.00;5070758;28;20231;-82
2022/09/21 08:35:52;;;;;;;0.70;0.70;;;;;;;19.41;53.54;99314.63;5070497;28;20231;-83
2022/09/21 08:38:21;;;;;;;1.20;0.83;;;;;;;19.58;54.92;99315.44;5070709;28;20205;-82
2022/09/21 08:40:48;;;;;;;0.60;0.60;;;;;;;19.78;51.33;99314.16;5072725;28;20235;-83
2022/09/21 08:43:22;;;;;;;0.70;0.70;;;;;;;19.93;52.28;99314.28;5074694;28;20201;-83
2022/09/21 08:45:49;;;;;;;0.70;0.70;;;;;;;19.94;51.86;99309.91;5076920;28;20258;-83
2022/09/21 08:48:20;;;;;;;0.53;0.53;;;;;;;20.15;51.40;99317.16;5076565;28;20209;-84
2022/09/21 08:50:52;;;;;;;0.70;0.70;;;;;;;19.83;51.89;99318.84;5076355;28;20232;-83
2022/09/21 08:53:26;;;;;;;0.50;0.50;;;;;;;19.82;54.17;99312.03;5079624;28;20643;-83
2022/09/21 08:55:56;;;;;;;0.80;0.80;;;;;;;19.90;51.24;99304.25;5077023;28;20259;-83
2022/09/21 08:58:25;;;;;;;1.13;0.73;;;;;;;20.20;52.60;99309.69;5079098;28;20571;-82
2022/09/21 09:01:04;;;;;;;0.70;0.70;;;;;;;20.51;51.73;99302.75;5076928;28;20220;-83
2022/09/21 09:04:04;;;;;;;2.40;0.60;;;;;;;21.10;51.83;99296.25;5075521;28;20649;-83
2022/09/21 09:06:39;;;;;;;0.57;0.57;;;;;;;20.99;48.91;99295.66;5075154;28;20599;-83
2022/09/21 09:09:39;;;;;;;1.50;0.80;;;;;;;21.06;48.23;99302.78;5074876;28;20677;-82
2022/09/21 09:12:26;;;;;;;0.67;0.60;;;;;;;21.24;50.32;99298.09;5074044;28;20724;-83
2022/09/21 09:15:13;;;;;;;0.67;0.67;;;;;;;21.69;52.99;99286.03;5075438;28;20233;-84
2022/09/21 09:17:49;;;;;;;0.47;0.47;;;;;;;21.79;47.68;99285.78;5076161;28;20671;-83
2022/09/21 09:20:19;;;;;;;0.80;0.73;;;;;;;21.88;46.49;99277.72;5074918;28;20507;-83
2022/09/21 09:22:53;;;;;;;0.63;0.60;;;;;;;21.75;48.22;99285.31;5075121;28;20616;-84
2022/09/21 09:25:23;;;;;;;0.90;0.70;;;;;;;22.07;46.01;99281.56;5077581;28;20253;-83
2022/09/21 09:27:54;;;;;;;1.00;0.77;;;;;;;22.27;47.02;99274.03;5078022;28;20217;-83
2022/09/21 09:30:24;;;;;;;2.17;1.10;;;;;;;22.09;46.33;99276.19;5076572;28;20222;-84
2022/09/21 09:32:57;;;;;;;0.70;0.70;;;;;;;22.34;45.99;99264.50;5076096;28;20256;-83
2022/09/21 09:35:31;;;;;;;0.70;0.70;;;;;;;22.44;44.36;99273.84;5074039;28;20248;-84
2022/09/21 09:38:02;;;;;;;0.80;0.80;;;;;;;22.31;44.47;99264.88;5073815;28;20293;-83
2022/09/21 09:40:46;;;;;;;0.70;0.67;;;;;;;21.75;44.15;99264.50;5074684;28;20225;-83
2022/09/21 09:43:22;;;;;;;0.97;0.70;;;;;;;21.98;45.22;99263.63;5075778;28;20217;-84
2022/09/21 09:46:00;;;;;;;0.67;0.67;;;;;;;21.38;44.06;99268.78;5075898;28;20223;-83
2022/09/21 09:48:49;;;;;;;0.33;0.33;;;;;;;22.16;47.42;99264.03;5075442;28;20199;-84
2022/09/21 09:51:18;;;;;;;0.60;0.60;;;;;;;22.59;44.71;99261.56;5074656;28;20610;-83
2022/09/21 09:53:45;;;;;;;0.50;0.50;;;;;;;22.79;43.61;99256.56;5074380;28;20198;-83
2022/09/21 09:56:13;;;;;;;0.50;0.50;;;;;;;22.69;44.76;99271.69;5074017;28;20233;-83
2022/09/21 09:58:47;;;;;;;0.75;0.60;;;;;;;22.83;43.09;99269.06;5075710;28;20198;-83
2022/09/21 10:01:38;;;;;;;0.60;0.57;;;;;;;22.75;43.67;99266.56;5075187;28;20219;-84
2022/09/21 10:04:07;;;;;;;0.67;0.67;;;;;;;22.90;41.94;99258.69;5074181;28;20263;-84
2022/09/21 10:06:35;;;;;;;0.50;0.50;;;;;;;22.80;42.12;99247.75;5073518;28;20231;-84
2022/09/21 10:09:18;;;;;;;0.55;0.55;;;;;;;22.83;41.43;99253.41;5073167;28;20705;-84
2022/09/21 10:11:46;;;;;;;0.70;0.60;;;;;;;22.59;43.16;99266.78;5072668;28;20226;-83
2022/09/21 10:14:18;;;;;;;0.60;0.50;;;;;;;22.51;41.97;99248.66;5073137;28;20202;-83
2022/09/21 10:16:46;;;;;;;0.60;0.57;;;;;;;21.86;43.21;99245.03;5072836;28;20257;-83
2022/09/21 10:19:19;;;;;;;0.47;0.40;;;;;;;21.14;45.14;99245.53;5072922;28;20210;-84
2022/09/21 10:21:46;;;;;;;0.60;0.60;;;;;;;21.28;43.91;99242.16;5072419;28;20229;-83
2022/09/21 10:24:20;;;;;;;0.40;0.40;;;;;;;21.39;46.04;99239.16;5072154;28;20206;-84
2022/09/21 10:26:53;;;;;;;0.50;0.50;;;;;;;20.95;43.50;99232.03;5071924;28;20225;-83
2022/09/21 10:29:30;;;;;;;0.57;0.57;;;;;;;20.66;45.77;99242.31;5071986;28;20190;-84
2022/09/21 10:31:59;;;;;;;0.80;0.67;;;;;;;20.95;44.94;99233.81;5072318;28;20226;-84
2022/09/21 10:34:27;;;;;;;0.70;0.70;;;;;;;21.17;46.42;99235.56;5072720;28;20207;-84
2022/09/21 10:36:56;;;;;;;0.50;0.50;;;;;;;21.00;44.53;99234.91;5071577;28;20241;-84
2022/09/21 10:39:26;;;;;;;0.70;0.67;;;;;;;20.57;46.45;99229.34;5072370;28;20200;-84
2022/09/21 10:42:01;;;;;;;0.70;0.70;;;;;;;20.30;47.51;99234.97;5072883;28;20216;-84
2022/09/21 10:44:36;;;;;;;1.23;1.13;;;;;;;20.10;47.59;99234.56;5073228;28;20260;-84
2022/09/21 10:47:15;;;;;;;0.87;0.60;;;;;;;20.01;48.54;99233.81;5071886;28;20227;-85
2022/09/21 10:49:46;;;;;;;0.70;0.70;;;;;;;20.10;46.64;99238.00;5072312;28;20230;-84
2022/09/21 10:52:13;;;;;;;0.70;0.70;;;;;;;20.23;47.77;99224.47;5071685;28;20227;-84
2022/09/21 10:54:42;;;;;;;1.20;0.67;;;;;;;20.43;47.60;99219.66;5071315;28;20195;-84
2022/09/21 10:57:16;;;;;;;0.60;0.60;;;;;;;20.15;47.42;99214.13;5071452;28;20232;-83
2022/09/21 10:59:43;;;;;;;1.07;0.70;;;;;;;20.00;49.33;99219.22;5072535;28;20823;-83
2022/09/21 11:02:28;;;;;;;0.80;0.80;;;;;;;19.98;49.28;99213.38;5071930;28;20225;-83
2022/09/21 11:04:59;;;;;;;0.90;0.90;;;;;;;20.05;49.05;99218.72;5074201;28;20204;-83
2022/09/21 11:07:31;;;;;;;0.83;0.83;;;;;;;19.81;47.97;99220.44;5073842;28;20668;-83
2022/09/21 11:10:04;;;;;;;0.83;0.83;;;;;;;19.81;49.22;99207.44;5073202;28;20209;-83
2022/09/21 11:12:47;;;;;;;0.70;0.70;;;;;;;19.71;47.51;99211.19;5076185;28;20564;-83
2022/09/21 11:15:27;;;;;;;0.70;0.53;;;;;;;19.67;47.36;99206.34;5074812;28;20325;-83
2022/09/21 11:18:02;;;;;;;0.70;0.70;;;;;;;20.02;47.87;99201.69;5072700;28;20209;-83
2022/09/21 11:20:36;;;;;;;0.47;0.47;;;;;;;20.57;44.48;99208.56;5073641;28;20232;-84
2022/09/21 11:23:11;;;;;;;0.53;0.53;;;;;;;20.57;43.85;99193.00;5071025;28;20220;-84
2022/09/21 11:25:46;;;;;;;0.60;0.60;;;;;;;20.57;44.72;99198.19;5072091;28;20236;-84
2022/09/21 11:28:23;;;;;;;0.60;0.60;;;;;;;20.77;44.09;99192.53;5071653;28;20708;-83
2022/09/21 11:31:22;;;;;;;0.53;0.53;;;;;;;21.39;46.00;99187.13;5071207;28;20593;-83
2022/09/21 11:34:03;;;;;;;0.57;0.57;;;;;;;21.14;41.22;99194.31;5071176;28;20195;-84
2022/09/21 11:36:43;;;;;;;0.60;0.40;;;;;;;21.68;42.00;99190.75;5071051;28;20241;-83
2022/09/21 11:39:19;;;;;;;0.40;0.40;;;;;;;21.98;43.01;99185.50;5071322;28;20306;-83
2022/09/21 11:41:59;;;;;;;0.40;0.40;;;;;;;21.98;42.80;99193.31;5070825;28;20715;-84
2022/09/21 11:44:48;;;;;;;0.57;0.50;;;;;;;21.82;42.57;99187.31;5071560;28;20210;-83
2022/09/21 11:47:29;;;;;;;0.90;0.70;;;;;;;22.06;42.29;99178.41;5072991;28;20205;-84
2022/09/21 11:50:29;;;;;;;0.30;0.30;;;;;;;22.47;42.38;99185.69;5072260;28;20262;-84
2022/09/21 11:53:10;;;;;;;0.50;0.50;;;;;;;22.33;40.39;99179.53;5071984;28;20198;-84
2022/09/21 11:55:53;;;;;;;0.50;0.50;;;;;;;21.76;40.94;99185.44;5071774;28;20249;-83
2022/09/21 11:58:27;;;;;;;0.47;0.40;;;;;;;21.57;40.90;99183.38;5071439;28;20191;-83
2022/09/21 12:01:04;;;;;;;0.47;0.47;;;;;;;21.33;40.78;99182.63;5072056;28;20248;-84